Nearby METAR Reports

 

EGUW - Wattisham Raf, United Kingdom
Distance from station: SW 12mi, 19km
Updated: 20/09/2020 21:50
Clear
Clear
 Wind from NNE
Wind: NNE 7 mph , 11 km/h
Temperature: 13°C
Dew Point: 12°C
Humidity: 94%
Barometer: 1020 hPa
Clouds: Clear
Visibility: 6 miles , 10 km
2020/09/20 20:50 EGUW 202050Z AUTO 03006KT 9999 NCD 13/12 Q1020
EGUL - Lakenheath Raf, United Kingdom
Distance from station: WNW 29mi, 47km
Updated: 20/09/2020 21:56
Clear
Clear
 Wind from NNE
Wind: NNE 3 mph , 6 km/h
Clouds: Clear
Visibility: 6 miles , 10 km
2020/09/20 20:56 EGUL 202056Z AUTO 02003KT 9999 CLR M A3013 RMK AO2 SLPNO ALSTG ESTMD 51003 $
 
EGUN - Mildenhall Raf, United Kingdom
Distance from station: WNW 32mi, 51km
Updated: 20/09/2020 22:11
Partly cloudy
Partly cloudy
 Wind from N
Wind: N 5 mph , 7 km/h
Temperature: 14°C
Dew Point: 14°C
Humidity: 100%
Barometer: 1020 hPa
Clouds: Partly cloudy
Visibility: 6 miles , 10 km
Cloud details: Partly cloudy 335 m
2020/09/20 21:11 EGUN 202111Z AUTO 36004KT 9999 SCT011 14/14 A3012 RMK AO2 SLP203 $
EGSH - Norwich Wea Cntr, United Kingdom
Distance from station: N 32mi, 52km
Updated: 20/09/2020 21:50
Clear
Clear
 Wind from N
Wind: N 2 mph , 4 km/h
Temperature: 13°C
Dew Point: 12°C
Humidity: 94%
Barometer: 1020 hPa
Clouds: Clear
Visibility: 6 miles , 10 km
2020/09/20 20:50 EGSH 202050Z AUTO 01002KT 9999 NCD 13/12 Q1020
 
EGYM - Marham Raf, United Kingdom
Distance from station: NW 39mi, 62km
Updated: 20/09/2020 21:50
Few Clouds
Few Clouds
 Wind from N
Wind: N 7 mph , 11 km/h
Temperature: 12°C
Dew Point: 10°C
Humidity: 88%
Barometer: 1020 hPa
Clouds: Few Clouds
Visibility: 6 miles , 10 km
Cloud details: Few Clouds 366 m
2020/09/20 20:50 EGYM 202050Z 35006KT 9999 FEW012 12/10 Q1020 BLU
EGSC - Cambridge, United Kingdom
Distance from station: W 43mi, 69km
Updated: 20/09/2020 17:50
NOT Current
Clear
Clear
 Wind from NNE
Wind: NNE 13 mph , 20 km/h
Temperature: 19°C
Dew Point: 13°C
Humidity: 68%
Barometer: 1019 hPa
Summary: Clear
Visibility: greater than 7 miles , 10 km
2020/09/20 16:50 EGSC 201650Z 03011KT CAVOK 19/13 Q1019
 
EGSS - Stansted Airport, United Kingdom
Distance from station: WSW 47mi, 76km
Updated: 20/09/2020 21:50
Clear
Clear
 Wind from NNE
Wind: NNE 6 mph , 9 km/h
Temperature: 14°C
Dew Point: 12°C
Humidity: 88%
Barometer: 1020 hPa
Clouds: Clear
Visibility: 6 miles , 10 km
2020/09/20 20:50 EGSS 202050Z AUTO 02005KT 9999 NCD 14/12 Q1020
EGMC - Southend-On-Sea, United Kingdom
Distance from station: SSW 50mi, 80km
Updated: 20/09/2020 21:50
Clear
Clear
 Wind from N
Wind: N 6 mph , 9 km/h
Temperature: 14°C
Dew Point: 12°C
Humidity: 88%
Barometer: 1019 hPa
Summary: Clear
Visibility: greater than 7 miles , 10 km
2020/09/20 20:50 EGMC 202050Z 01005KT CAVOK 14/12 Q1019